sensor_id;sensor_type;location;lat;lon;timestamp;P1;durP1;ratioP1;P2;durP2;ratioP2
22660;SDS011;11497;52.222;21.246;2024-01-15T00:00:05;16.52;;;10.23;;
22660;SDS011;11497;52.222;21.246;2024-01-15T00:02:39;15.32;;;9.68;;
22660;SDS011;11497;52.222;21.246;2024-01-15T00:05:07;15.63;;;10.05;;
22660;SDS011;11497;52.222;21.246;2024-01-15T00:07:35;17.15;;;9.88;;
22660;SDS011;11497;52.222;21.246;2024-01-15T00:10:03;17.17;;;9.90;;
22660;SDS011;11497;52.222;21.246;2024-01-15T00:12:32;18.08;;;10.60;;
22660;SDS011;11497;52.222;21.246;2024-01-15T00:15:00;16.20;;;9.52;;
22660;SDS011;11497;52.222;21.246;2024-01-15T00:17:28;16.02;;;9.65;;
22660;SDS011;11497;52.222;21.246;2024-01-15T00:19:56;16.73;;;10.48;;
22660;SDS011;11497;52.222;21.246;2024-01-15T00:22:25;18.23;;;10.15;;
22660;SDS011;11497;52.222;21.246;2024-01-15T00:24:56;15.48;;;9.80;;
22660;SDS011;11497;52.222;21.246;2024-01-15T00:27:24;16.88;;;10.70;;
22660;SDS011;11497;52.222;21.246;2024-01-15T00:29:51;20.98;;;11.25;;
22660;SDS011;11497;52.222;21.246;2024-01-15T00:32:21;16.25;;;11.00;;
22660;SDS011;11497;52.222;21.246;2024-01-15T00:34:49;17.75;;;10.60;;
22660;SDS011;11497;52.222;21.246;2024-01-15T00:37:18;19.30;;;11.48;;
22660;SDS011;11497;52.222;21.246;2024-01-15T00:39:46;17.90;;;11.40;;
22660;SDS011;11497;52.222;21.246;2024-01-15T00:42:14;18.58;;;11.43;;
22660;SDS011;11497;52.222;21.246;2024-01-15T00:44:42;16.67;;;10.60;;
22660;SDS011;11497;52.222;21.246;2024-01-15T00:47:10;19.23;;;11.20;;
22660;SDS011;11497;52.222;21.246;2024-01-15T00:49:38;19.17;;;11.30;;
22660;SDS011;11497;52.222;21.246;2024-01-15T00:52:06;19.90;;;12.63;;
22660;SDS011;11497;52.222;21.246;2024-01-15T00:54:34;23.08;;;12.70;;
22660;SDS011;11497;52.222;21.246;2024-01-15T00:57:03;16.85;;;11.32;;
22660;SDS011;11497;52.222;21.246;2024-01-15T00:59:31;17.08;;;10.93;;
22660;SDS011;11497;52.222;21.246;2024-01-15T01:01:59;21.88;;;12.52;;
22660;SDS011;11497;52.222;21.246;2024-01-15T01:04:27;19.58;;;11.98;;
22660;SDS011;11497;52.222;21.246;2024-01-15T01:06:55;17.65;;;11.63;;
22660;SDS011;11497;52.222;21.246;2024-01-15T01:09:23;21.42;;;12.60;;
22660;SDS011;11497;52.222;21.246;2024-01-15T01:11:52;20.88;;;11.95;;
22660;SDS011;11497;52.222;21.246;2024-01-15T01:14:19;22.55;;;13.40;;
22660;SDS011;11497;52.222;21.246;2024-01-15T01:16:47;20.60;;;12.15;;
22660;SDS011;11497;52.222;21.246;2024-01-15T01:19:15;24.27;;;13.10;;
22660;SDS011;11497;52.222;21.246;2024-01-15T01:21:44;19.65;;;11.60;;
22660;SDS011;11497;52.222;21.246;2024-01-15T01:24:12;21.38;;;13.93;;
22660;SDS011;11497;52.222;21.246;2024-01-15T01:26:40;21.27;;;13.38;;
22660;SDS011;11497;52.222;21.246;2024-01-15T01:29:07;22.48;;;12.82;;
22660;SDS011;11497;52.222;21.246;2024-01-15T01:31:41;21.15;;;13.23;;
22660;SDS011;11497;52.222;21.246;2024-01-15T01:34:13;25.63;;;14.20;;
22660;SDS011;11497;52.222;21.246;2024-01-15T01:36:43;23.83;;;14.02;;
22660;SDS011;11497;52.222;21.246;2024-01-15T01:39:11;23.42;;;14.50;;
22660;SDS011;11497;52.222;21.246;2024-01-15T01:41:39;27.73;;;13.75;;
22660;SDS011;11497;52.222;21.246;2024-01-15T01:44:07;24.45;;;14.05;;
22660;SDS011;11497;52.222;21.246;2024-01-15T01:46:35;25.08;;;15.02;;
22660;SDS011;11497;52.222;21.246;2024-01-15T01:49:07;25.10;;;14.30;;
22660;SDS011;11497;52.222;21.246;2024-01-15T01:51:36;23.55;;;14.38;;
22660;SDS011;11497;52.222;21.246;2024-01-15T01:54:06;24.27;;;14.80;;
22660;SDS011;11497;52.222;21.246;2024-01-15T01:56:38;24.52;;;15.02;;
22660;SDS011;11497;52.222;21.246;2024-01-15T01:59:07;24.77;;;15.55;;
22660;SDS011;11497;52.222;21.246;2024-01-15T02:01:38;26.60;;;15.20;;
22660;SDS011;11497;52.222;21.246;2024-01-15T02:04:06;26.27;;;15.23;;
22660;SDS011;11497;52.222;21.246;2024-01-15T02:06:34;29.33;;;16.85;;
22660;SDS011;11497;52.222;21.246;2024-01-15T02:09:03;30.15;;;17.05;;
22660;SDS011;11497;52.222;21.246;2024-01-15T02:11:32;27.95;;;15.43;;
22660;SDS011;11497;52.222;21.246;2024-01-15T02:14:00;25.77;;;16.30;;
22660;SDS011;11497;52.222;21.246;2024-01-15T02:16:28;28.42;;;16.85;;
22660;SDS011;11497;52.222;21.246;2024-01-15T02:18:56;27.48;;;16.77;;
22660;SDS011;11497;52.222;21.246;2024-01-15T02:21:24;26.25;;;15.55;;
22660;SDS011;11497;52.222;21.246;2024-01-15T02:23:55;30.58;;;16.88;;
22660;SDS011;11497;52.222;21.246;2024-01-15T02:26:23;30.15;;;17.08;;
22660;SDS011;11497;52.222;21.246;2024-01-15T02:28:51;29.73;;;16.58;;
22660;SDS011;11497;52.222;21.246;2024-01-15T02:31:19;29.13;;;16.08;;
22660;SDS011;11497;52.222;21.246;2024-01-15T02:33:47;27.05;;;15.40;;
22660;SDS011;11497;52.222;21.246;2024-01-15T02:36:15;25.52;;;16.02;;
22660;SDS011;11497;52.222;21.246;2024-01-15T02:38:43;29.75;;;17.33;;
22660;SDS011;11497;52.222;21.246;2024-01-15T02:41:11;29.17;;;16.63;;
22660;SDS011;11497;52.222;21.246;2024-01-15T02:43:40;24.45;;;15.05;;
22660;SDS011;11497;52.222;21.246;2024-01-15T02:46:09;25.65;;;15.65;;
22660;SDS011;11497;52.222;21.246;2024-01-15T02:48:36;28.83;;;16.40;;
22660;SDS011;11497;52.222;21.246;2024-01-15T02:51:05;28.58;;;15.95;;
22660;SDS011;11497;52.222;21.246;2024-01-15T02:53:32;26.90;;;15.88;;
22660;SDS011;11497;52.222;21.246;2024-01-15T02:56:00;27.08;;;15.30;;
22660;SDS011;11497;52.222;21.246;2024-01-15T02:58:28;26.88;;;14.60;;
22660;SDS011;11497;52.222;21.246;2024-01-15T03:00:56;27.08;;;15.70;;
22660;SDS011;11497;52.222;21.246;2024-01-15T03:03:24;25.33;;;14.95;;
22660;SDS011;11497;52.222;21.246;2024-01-15T03:05:53;23.98;;;15.60;;
22660;SDS011;11497;52.222;21.246;2024-01-15T03:08:21;25.35;;;15.57;;
22660;SDS011;11497;52.222;21.246;2024-01-15T03:10:50;27.38;;;15.18;;
22660;SDS011;11497;52.222;21.246;2024-01-15T03:13:17;25.67;;;14.82;;
22660;SDS011;11497;52.222;21.246;2024-01-15T03:15:46;23.88;;;14.02;;
22660;SDS011;11497;52.222;21.246;2024-01-15T03:18:14;23.52;;;15.02;;
22660;SDS011;11497;52.222;21.246;2024-01-15T03:20:42;25.63;;;15.05;;
22660;SDS011;11497;52.222;21.246;2024-01-15T03:23:11;28.40;;;15.07;;
22660;SDS011;11497;52.222;21.246;2024-01-15T03:25:39;25.85;;;14.93;;
22660;SDS011;11497;52.222;21.246;2024-01-15T03:28:07;26.10;;;14.52;;
22660;SDS011;11497;52.222;21.246;2024-01-15T03:30:35;25.02;;;14.82;;
22660;SDS011;11497;52.222;21.246;2024-01-15T03:33:04;25.15;;;13.98;;
22660;SDS011;11497;52.222;21.246;2024-01-15T03:35:32;23.35;;;14.07;;
22660;SDS011;11497;52.222;21.246;2024-01-15T03:37:59;27.00;;;15.23;;
22660;SDS011;11497;52.222;21.246;2024-01-15T03:40:27;29.15;;;15.82;;
22660;SDS011;11497;52.222;21.246;2024-01-15T03:42:55;29.85;;;16.13;;
22660;SDS011;11497;52.222;21.246;2024-01-15T03:45:23;25.33;;;15.27;;
22660;SDS011;11497;52.222;21.246;2024-01-15T03:47:51;29.70;;;16.65;;
22660;SDS011;11497;52.222;21.246;2024-01-15T03:50:19;30.15;;;16.27;;
22660;SDS011;11497;52.222;21.246;2024-01-15T03:52:47;25.80;;;15.38;;
22660;SDS011;11497;52.222;21.246;2024-01-15T03:55:15;31.85;;;16.65;;
22660;SDS011;11497;52.222;21.246;2024-01-15T03:57:43;31.13;;;15.57;;
22660;SDS011;11497;52.222;21.246;2024-01-15T04:00:11;29.88;;;17.02;;
22660;SDS011;11497;52.222;21.246;2024-01-15T04:02:41;28.83;;;15.48;;
22660;SDS011;11497;52.222;21.246;2024-01-15T04:05:09;31.23;;;15.40;;
22660;SDS011;11497;52.222;21.246;2024-01-15T04:07:36;31.92;;;17.58;;
22660;SDS011;11497;52.222;21.246;2024-01-15T04:10:05;27.77;;;15.82;;
22660;SDS011;11497;52.222;21.246;2024-01-15T04:12:33;27.38;;;16.27;;
22660;SDS011;11497;52.222;21.246;2024-01-15T04:15:01;30.92;;;15.65;;
22660;SDS011;11497;52.222;21.246;2024-01-15T04:17:29;28.05;;;14.95;;
22660;SDS011;11497;52.222;21.246;2024-01-15T04:19:57;28.17;;;15.32;;
22660;SDS011;11497;52.222;21.246;2024-01-15T04:22:25;29.30;;;16.02;;
22660;SDS011;11497;52.222;21.246;2024-01-15T04:24:53;30.25;;;16.80;;
22660;SDS011;11497;52.222;21.246;2024-01-15T04:27:21;29.83;;;15.63;;
22660;SDS011;11497;52.222;21.246;2024-01-15T04:29:49;25.50;;;14.80;;
22660;SDS011;11497;52.222;21.246;2024-01-15T04:32:17;29.17;;;15.32;;
22660;SDS011;11497;52.222;21.246;2024-01-15T04:34:45;31.65;;;15.60;;
22660;SDS011;11497;52.222;21.246;2024-01-15T04:37:13;27.45;;;15.25;;
22660;SDS011;11497;52.222;21.246;2024-01-15T04:39:41;27.10;;;15.02;;
22660;SDS011;11497;52.222;21.246;2024-01-15T04:42:09;27.17;;;15.50;;
22660;SDS011;11497;52.222;21.246;2024-01-15T04:44:37;29.58;;;14.60;;
22660;SDS011;11497;52.222;21.246;2024-01-15T04:47:05;26.05;;;14.68;;
22660;SDS011;11497;52.222;21.246;2024-01-15T04:49:33;27.23;;;16.25;;
22660;SDS011;11497;52.222;21.246;2024-01-15T04:52:01;27.95;;;14.30;;
22660;SDS011;11497;52.222;21.246;2024-01-15T04:54:29;28.35;;;15.02;;
22660;SDS011;11497;52.222;21.246;2024-01-15T04:56:57;27.15;;;14.57;;
22660;SDS011;11497;52.222;21.246;2024-01-15T04:59:25;25.23;;;14.23;;
22660;SDS011;11497;52.222;21.246;2024-01-15T05:01:53;24.40;;;13.80;;
22660;SDS011;11497;52.222;21.246;2024-01-15T05:04:22;26.42;;;15.10;;
22660;SDS011;11497;52.222;21.246;2024-01-15T05:06:51;24.85;;;14.52;;
22660;SDS011;11497;52.222;21.246;2024-01-15T05:09:20;24.08;;;14.50;;
22660;SDS011;11497;52.222;21.246;2024-01-15T05:11:48;25.40;;;14.65;;
22660;SDS011;11497;52.222;21.246;2024-01-15T05:14:16;25.02;;;14.15;;
22660;SDS011;11497;52.222;21.246;2024-01-15T05:16:47;25.88;;;14.85;;
22660;SDS011;11497;52.222;21.246;2024-01-15T05:19:16;24.85;;;13.93;;
22660;SDS011;11497;52.222;21.246;2024-01-15T05:21:46;26.27;;;14.43;;
22660;SDS011;11497;52.222;21.246;2024-01-15T05:24:14;24.48;;;13.65;;
22660;SDS011;11497;52.222;21.246;2024-01-15T05:26:42;23.08;;;13.30;;
22660;SDS011;11497;52.222;21.246;2024-01-15T05:29:10;24.80;;;14.27;;
22660;SDS011;11497;52.222;21.246;2024-01-15T05:31:38;23.75;;;13.95;;
22660;SDS011;11497;52.222;21.246;2024-01-15T05:34:06;25.55;;;14.75;;
22660;SDS011;11497;52.222;21.246;2024-01-15T05:36:34;24.60;;;13.52;;
22660;SDS011;11497;52.222;21.246;2024-01-15T05:39:02;21.75;;;13.07;;
22660;SDS011;11497;52.222;21.246;2024-01-15T05:41:30;25.42;;;14.43;;
22660;SDS011;11497;52.222;21.246;2024-01-15T05:43:59;24.17;;;14.13;;
22660;SDS011;11497;52.222;21.246;2024-01-15T05:46:27;24.65;;;13.93;;
22660;SDS011;11497;52.222;21.246;2024-01-15T05:48:55;24.60;;;13.95;;
22660;SDS011;11497;52.222;21.246;2024-01-15T05:51:23;25.13;;;14.30;;
22660;SDS011;11497;52.222;21.246;2024-01-15T05:53:51;22.83;;;13.80;;
22660;SDS011;11497;52.222;21.246;2024-01-15T05:56:19;24.08;;;14.38;;
22660;SDS011;11497;52.222;21.246;2024-01-15T05:58:47;22.17;;;13.18;;
22660;SDS011;11497;52.222;21.246;2024-01-15T06:01:15;22.08;;;13.40;;
22660;SDS011;11497;52.222;21.246;2024-01-15T06:03:43;23.98;;;13.68;;
22660;SDS011;11497;52.222;21.246;2024-01-15T06:06:11;24.88;;;14.45;;
22660;SDS011;11497;52.222;21.246;2024-01-15T06:08:40;21.75;;;13.32;;
22660;SDS011;11497;52.222;21.246;2024-01-15T06:11:07;20.58;;;13.15;;
22660;SDS011;11497;52.222;21.246;2024-01-15T06:13:35;25.10;;;13.50;;
22660;SDS011;11497;52.222;21.246;2024-01-15T06:16:11;20.98;;;13.10;;
22660;SDS011;11497;52.222;21.246;2024-01-15T06:18:44;20.55;;;12.73;;
22660;SDS011;11497;52.222;21.246;2024-01-15T06:21:12;20.35;;;12.48;;
22660;SDS011;11497;52.222;21.246;2024-01-15T06:23:41;21.92;;;13.70;;
22660;SDS011;11497;52.222;21.246;2024-01-15T06:26:11;20.67;;;12.90;;
22660;SDS011;11497;52.222;21.246;2024-01-15T06:28:39;20.05;;;12.85;;
22660;SDS011;11497;52.222;21.246;2024-01-15T06:31:07;22.13;;;13.13;;
22660;SDS011;11497;52.222;21.246;2024-01-15T06:33:35;21.02;;;12.45;;
22660;SDS011;11497;52.222;21.246;2024-01-15T06:36:04;19.02;;;12.25;;
22660;SDS011;11497;52.222;21.246;2024-01-15T06:38:32;20.25;;;12.00;;
22660;SDS011;11497;52.222;21.246;2024-01-15T06:41:00;24.92;;;13.10;;
22660;SDS011;11497;52.222;21.246;2024-01-15T06:43:28;20.50;;;12.38;;
22660;SDS011;11497;52.222;21.246;2024-01-15T06:45:56;22.95;;;13.02;;
22660;SDS011;11497;52.222;21.246;2024-01-15T06:48:25;23.63;;;13.13;;
22660;SDS011;11497;52.222;21.246;2024-01-15T06:50:52;23.95;;;13.55;;
22660;SDS011;11497;52.222;21.246;2024-01-15T06:53:20;20.88;;;12.27;;
22660;SDS011;11497;52.222;21.246;2024-01-15T06:55:48;20.15;;;12.93;;
22660;SDS011;11497;52.222;21.246;2024-01-15T06:58:18;21.23;;;13.35;;
22660;SDS011;11497;52.222;21.246;2024-01-15T07:00:46;23.65;;;13.75;;
22660;SDS011;11497;52.222;21.246;2024-01-15T07:03:14;23.50;;;13.35;;
22660;SDS011;11497;52.222;21.246;2024-01-15T07:05:42;19.58;;;13.05;;
22660;SDS011;11497;52.222;21.246;2024-01-15T07:08:10;18.52;;;11.43;;
22660;SDS011;11497;52.222;21.246;2024-01-15T07:10:38;21.35;;;12.68;;
22660;SDS011;11497;52.222;21.246;2024-01-15T07:13:06;22.60;;;13.25;;
22660;SDS011;11497;52.222;21.246;2024-01-15T07:15:34;19.90;;;12.38;;
22660;SDS011;11497;52.222;21.246;2024-01-15T07:18:02;19.38;;;11.27;;
22660;SDS011;11497;52.222;21.246;2024-01-15T07:20:30;21.33;;;13.10;;
22660;SDS011;11497;52.222;21.246;2024-01-15T07:23:00;24.00;;;13.27;;
22660;SDS011;11497;52.222;21.246;2024-01-15T07:25:27;18.98;;;12.35;;
22660;SDS011;11497;52.222;21.246;2024-01-15T07:27:55;20.60;;;12.90;;
22660;SDS011;11497;52.222;21.246;2024-01-15T07:30:23;19.73;;;12.30;;
22660;SDS011;11497;52.222;21.246;2024-01-15T07:32:52;21.25;;;13.82;;
22660;SDS011;11497;52.222;21.246;2024-01-15T07:35:20;20.48;;;12.10;;
22660;SDS011;11497;52.222;21.246;2024-01-15T07:37:48;22.05;;;12.93;;
22660;SDS011;11497;52.222;21.246;2024-01-15T07:40:16;22.23;;;13.13;;
22660;SDS011;11497;52.222;21.246;2024-01-15T07:42:44;21.88;;;12.43;;
22660;SDS011;11497;52.222;21.246;2024-01-15T07:45:12;21.70;;;13.57;;
22660;SDS011;11497;52.222;21.246;2024-01-15T07:47:40;22.25;;;13.57;;
22660;SDS011;11497;52.222;21.246;2024-01-15T07:50:08;24.48;;;13.23;;
22660;SDS011;11497;52.222;21.246;2024-01-15T07:52:36;22.27;;;14.07;;
22660;SDS011;11497;52.222;21.246;2024-01-15T07:55:05;22.60;;;12.93;;
22660;SDS011;11497;52.222;21.246;2024-01-15T07:57:34;23.05;;;13.80;;
22660;SDS011;11497;52.222;21.246;2024-01-15T08:00:03;22.73;;;13.88;;
22660;SDS011;11497;52.222;21.246;2024-01-15T08:02:36;24.80;;;14.00;;
22660;SDS011;11497;52.222;21.246;2024-01-15T08:05:04;23.10;;;13.60;;
22660;SDS011;11497;52.222;21.246;2024-01-15T08:07:33;22.13;;;13.05;;
22660;SDS011;11497;52.222;21.246;2024-01-15T08:10:00;21.90;;;13.15;;
22660;SDS011;11497;52.222;21.246;2024-01-15T08:12:29;20.67;;;13.43;;
22660;SDS011;11497;52.222;21.246;2024-01-15T08:14:57;22.35;;;14.27;;
22660;SDS011;11497;52.222;21.246;2024-01-15T08:17:25;21.73;;;12.88;;
22660;SDS011;11497;52.222;21.246;2024-01-15T08:19:56;20.80;;;12.48;;
22660;SDS011;11497;52.222;21.246;2024-01-15T08:22:24;18.65;;;11.25;;
22660;SDS011;11497;52.222;21.246;2024-01-15T08:24:55;18.70;;;11.82;;
22660;SDS011;11497;52.222;21.246;2024-01-15T08:27:23;18.95;;;11.70;;
22660;SDS011;11497;52.222;21.246;2024-01-15T08:29:51;20.92;;;11.95;;
22660;SDS011;11497;52.222;21.246;2024-01-15T08:32:19;17.50;;;10.52;;
22660;SDS011;11497;52.222;21.246;2024-01-15T08:34:47;20.40;;;11.35;;
22660;SDS011;11497;52.222;21.246;2024-01-15T08:37:19;18.20;;;10.98;;
22660;SDS011;11497;52.222;21.246;2024-01-15T08:39:47;18.70;;;12.27;;
22660;SDS011;11497;52.222;21.246;2024-01-15T08:42:18;17.83;;;10.55;;
22660;SDS011;11497;52.222;21.246;2024-01-15T08:44:46;17.33;;;10.82;;
22660;SDS011;11497;52.222;21.246;2024-01-15T08:47:14;18.50;;;11.02;;
22660;SDS011;11497;52.222;21.246;2024-01-15T08:49:42;18.63;;;11.52;;
22660;SDS011;11497;52.222;21.246;2024-01-15T08:52:12;16.95;;;10.05;;
22660;SDS011;11497;52.222;21.246;2024-01-15T08:54:41;16.92;;;10.23;;
22660;SDS011;11497;52.222;21.246;2024-01-15T08:57:10;15.52;;;10.73;;
22660;SDS011;11497;52.222;21.246;2024-01-15T08:59:38;15.15;;;10.38;;
22660;SDS011;11497;52.222;21.246;2024-01-15T09:02:08;20.05;;;10.98;;
22660;SDS011;11497;52.222;21.246;2024-01-15T09:04:35;17.52;;;10.68;;
22660;SDS011;11497;52.222;21.246;2024-01-15T09:07:04;17.35;;;10.05;;
22660;SDS011;11497;52.222;21.246;2024-01-15T09:09:31;16.30;;;9.77;;
22660;SDS011;11497;52.222;21.246;2024-01-15T09:12:01;15.35;;;10.23;;
22660;SDS011;11497;52.222;21.246;2024-01-15T09:14:28;15.80;;;10.52;;
22660;SDS011;11497;52.222;21.246;2024-01-15T09:17:06;16.85;;;10.93;;
22660;SDS011;11497;52.222;21.246;2024-01-15T09:19:34;19.05;;;11.82;;
22660;SDS011;11497;52.222;21.246;2024-01-15T09:22:03;17.60;;;11.07;;
22660;SDS011;11497;52.222;21.246;2024-01-15T09:24:30;18.25;;;11.38;;
22660;SDS011;11497;52.222;21.246;2024-01-15T09:26:59;16.33;;;10.77;;
22660;SDS011;11497;52.222;21.246;2024-01-15T09:29:26;17.88;;;10.98;;
22660;SDS011;11497;52.222;21.246;2024-01-15T09:31:54;16.80;;;11.02;;
22660;SDS011;11497;52.222;21.246;2024-01-15T09:34:23;16.77;;;10.57;;
22660;SDS011;11497;52.222;21.246;2024-01-15T09:36:51;16.02;;;10.52;;
22660;SDS011;11497;52.222;21.246;2024-01-15T09:39:18;18.38;;;10.10;;
22660;SDS011;11497;52.222;21.246;2024-01-15T09:41:47;16.48;;;9.48;;
22660;SDS011;11497;52.222;21.246;2024-01-15T09:44:15;15.30;;;9.13;;
22660;SDS011;11497;52.222;21.246;2024-01-15T09:46:44;14.07;;;9.00;;
22660;SDS011;11497;52.222;21.246;2024-01-15T09:49:12;15.00;;;9.00;;
22660;SDS011;11497;52.222;21.246;2024-01-15T09:51:41;14.15;;;8.65;;
22660;SDS011;11497;52.222;21.246;2024-01-15T09:54:11;12.65;;;8.05;;
22660;SDS011;11497;52.222;21.246;2024-01-15T09:56:40;13.00;;;7.72;;
22660;SDS011;11497;52.222;21.246;2024-01-15T09:59:08;19.45;;;8.45;;
22660;SDS011;11497;52.222;21.246;2024-01-15T10:01:37;13.07;;;8.57;;
22660;SDS011;11497;52.222;21.246;2024-01-15T10:04:07;13.32;;;7.68;;
22660;SDS011;11497;52.222;21.246;2024-01-15T10:06:35;18.38;;;8.93;;
22660;SDS011;11497;52.222;21.246;2024-01-15T10:09:05;12.68;;;7.63;;
22660;SDS011;11497;52.222;21.246;2024-01-15T10:11:35;11.00;;;7.22;;
22660;SDS011;11497;52.222;21.246;2024-01-15T10:14:04;13.52;;;7.18;;
22660;SDS011;11497;52.222;21.246;2024-01-15T10:16:32;11.70;;;7.07;;
22660;SDS011;11497;52.222;21.246;2024-01-15T10:19:00;11.93;;;6.97;;
22660;SDS011;11497;52.222;21.246;2024-01-15T10:21:31;13.90;;;7.15;;
22660;SDS011;11497;52.222;21.246;2024-01-15T10:24:03;14.02;;;7.57;;
22660;SDS011;11497;52.222;21.246;2024-01-15T10:26:31;14.77;;;7.55;;
22660;SDS011;11497;52.222;21.246;2024-01-15T10:29:00;11.82;;;7.30;;
22660;SDS011;11497;52.222;21.246;2024-01-15T10:31:28;11.70;;;6.35;;
22660;SDS011;11497;52.222;21.246;2024-01-15T10:34:09;14.20;;;6.90;;
22660;SDS011;11497;52.222;21.246;2024-01-15T10:36:39;12.82;;;6.57;;
22660;SDS011;11497;52.222;21.246;2024-01-15T10:39:07;10.73;;;6.57;;
22660;SDS011;11497;52.222;21.246;2024-01-15T10:41:36;12.93;;;6.95;;
22660;SDS011;11497;52.222;21.246;2024-01-15T10:44:03;12.00;;;6.63;;
22660;SDS011;11497;52.222;21.246;2024-01-15T10:46:32;11.77;;;6.32;;
22660;SDS011;11497;52.222;21.246;2024-01-15T10:49:01;14.30;;;7.20;;
22660;SDS011;11497;52.222;21.246;2024-01-15T10:51:31;13.32;;;7.30;;
22660;SDS011;11497;52.222;21.246;2024-01-15T10:53:59;16.77;;;7.15;;
22660;SDS011;11497;52.222;21.246;2024-01-15T10:56:28;15.13;;;7.65;;
22660;SDS011;11497;52.222;21.246;2024-01-15T10:58:59;12.27;;;6.68;;
22660;SDS011;11497;52.222;21.246;2024-01-15T11:01:28;11.80;;;6.88;;
22660;SDS011;11497;52.222;21.246;2024-01-15T11:03:57;11.15;;;6.90;;
22660;SDS011;11497;52.222;21.246;2024-01-15T11:06:25;11.23;;;6.70;;
22660;SDS011;11497;52.222;21.246;2024-01-15T11:09:07;11.80;;;6.38;;
22660;SDS011;11497;52.222;21.246;2024-01-15T11:11:36;12.32;;;6.90;;
22660;SDS011;11497;52.222;21.246;2024-01-15T11:14:08;12.50;;;7.03;;
22660;SDS011;11497;52.222;21.246;2024-01-15T11:16:53;14.52;;;7.63;;
22660;SDS011;11497;52.222;21.246;2024-01-15T11:19:23;12.05;;;7.68;;
22660;SDS011;11497;52.222;21.246;2024-01-15T11:21:51;10.60;;;6.70;;
22660;SDS011;11497;52.222;21.246;2024-01-15T11:24:35;10.77;;;7.00;;
22660;SDS011;11497;52.222;21.246;2024-01-15T11:27:05;11.55;;;6.65;;
22660;SDS011;11497;52.222;21.246;2024-01-15T11:29:36;16.52;;;7.18;;
22660;SDS011;11497;52.222;21.246;2024-01-15T11:32:05;14.38;;;7.25;;
22660;SDS011;11497;52.222;21.246;2024-01-15T11:37:29;13.55;;;6.88;;
22660;SDS011;11497;52.222;21.246;2024-01-15T11:42:49;15.90;;;8.40;;
22660;SDS011;11497;52.222;21.246;2024-01-15T11:45:19;14.13;;;7.20;;
22660;SDS011;11497;52.222;21.246;2024-01-15T11:55:51;18.80;;;8.70;;
22660;SDS011;11497;52.222;21.246;2024-01-15T11:58:24;13.23;;;8.13;;
22660;SDS011;11497;52.222;21.246;2024-01-15T12:00:52;12.02;;;7.80;;
22660;SDS011;11497;52.222;21.246;2024-01-15T12:03:22;13.90;;;7.80;;
22660;SDS011;11497;52.222;21.246;2024-01-15T12:05:52;12.85;;;7.47;;
22660;SDS011;11497;52.222;21.246;2024-01-15T12:08:20;11.45;;;7.20;;
22660;SDS011;11497;52.222;21.246;2024-01-15T12:10:51;15.65;;;8.98;;
22660;SDS011;11497;52.222;21.246;2024-01-15T12:13:20;14.38;;;8.30;;
22660;SDS011;11497;52.222;21.246;2024-01-15T12:15:48;13.35;;;8.52;;
22660;SDS011;11497;52.222;21.246;2024-01-15T12:18:17;13.40;;;8.25;;
22660;SDS011;11497;52.222;21.246;2024-01-15T12:20:46;17.15;;;8.13;;
22660;SDS011;11497;52.222;21.246;2024-01-15T12:23:15;13.40;;;7.78;;
22660;SDS011;11497;52.222;21.246;2024-01-15T12:25:44;12.25;;;7.57;;
22660;SDS011;11497;52.222;21.246;2024-01-15T12:28:14;12.55;;;7.97;;
22660;SDS011;11497;52.222;21.246;2024-01-15T12:30:42;14.18;;;8.00;;
22660;SDS011;11497;52.222;21.246;2024-01-15T12:35:44;14.80;;;8.18;;
22660;SDS011;11497;52.222;21.246;2024-01-15T12:38:12;14.80;;;7.95;;
22660;SDS011;11497;52.222;21.246;2024-01-15T12:40:39;14.50;;;7.03;;
22660;SDS011;11497;52.222;21.246;2024-01-15T12:43:13;15.25;;;8.48;;
22660;SDS011;11497;52.222;21.246;2024-01-15T12:45:41;16.83;;;8.65;;
22660;SDS011;11497;52.222;21.246;2024-01-15T12:48:10;14.52;;;8.50;;
22660;SDS011;11497;52.222;21.246;2024-01-15T12:50:40;15.93;;;8.27;;
22660;SDS011;11497;52.222;21.246;2024-01-15T12:53:10;15.48;;;8.13;;
22660;SDS011;11497;52.222;21.246;2024-01-15T12:55:38;16.00;;;8.70;;
22660;SDS011;11497;52.222;21.246;2024-01-15T12:58:19;17.15;;;8.82;;
22660;SDS011;11497;52.222;21.246;2024-01-15T13:00:47;14.25;;;8.43;;
22660;SDS011;11497;52.222;21.246;2024-01-15T13:03:15;15.68;;;8.77;;
22660;SDS011;11497;52.222;21.246;2024-01-15T13:05:44;15.40;;;8.95;;
22660;SDS011;11497;52.222;21.246;2024-01-15T13:08:12;17.65;;;9.38;;
22660;SDS011;11497;52.222;21.246;2024-01-15T13:10:40;16.23;;;9.20;;
22660;SDS011;11497;52.222;21.246;2024-01-15T13:13:09;17.88;;;9.32;;
22660;SDS011;11497;52.222;21.246;2024-01-15T13:15:37;14.35;;;8.85;;
22660;SDS011;11497;52.222;21.246;2024-01-15T13:18:05;16.88;;;8.70;;
22660;SDS011;11497;52.222;21.246;2024-01-15T13:20:33;14.90;;;8.00;;
22660;SDS011;11497;52.222;21.246;2024-01-15T13:23:02;16.88;;;9.07;;
22660;SDS011;11497;52.222;21.246;2024-01-15T13:25:30;15.73;;;9.23;;
22660;SDS011;11497;52.222;21.246;2024-01-15T13:28:00;14.43;;;8.60;;
22660;SDS011;11497;52.222;21.246;2024-01-15T13:30:29;15.43;;;8.00;;
22660;SDS011;11497;52.222;21.246;2024-01-15T13:32:58;16.48;;;9.05;;
22660;SDS011;11497;52.222;21.246;2024-01-15T13:35:31;16.10;;;8.63;;
22660;SDS011;11497;52.222;21.246;2024-01-15T13:37:59;18.30;;;9.57;;
22660;SDS011;11497;52.222;21.246;2024-01-15T13:40:26;17.52;;;9.63;;
22660;SDS011;11497;52.222;21.246;2024-01-15T13:42:55;21.60;;;10.57;;
22660;SDS011;11497;52.222;21.246;2024-01-15T13:45:23;18.33;;;10.00;;
22660;SDS011;11497;52.222;21.246;2024-01-15T13:47:51;18.35;;;10.20;;
22660;SDS011;11497;52.222;21.246;2024-01-15T13:50:19;19.02;;;9.82;;
22660;SDS011;11497;52.222;21.246;2024-01-15T13:52:50;20.33;;;10.27;;
22660;SDS011;11497;52.222;21.246;2024-01-15T13:55:18;19.92;;;9.98;;
22660;SDS011;11497;52.222;21.246;2024-01-15T13:57:47;19.58;;;9.93;;
22660;SDS011;11497;52.222;21.246;2024-01-15T14:00:15;22.13;;;10.18;;
22660;SDS011;11497;52.222;21.246;2024-01-15T14:02:47;18.60;;;9.60;;
22660;SDS011;11497;52.222;21.246;2024-01-15T14:05:15;19.42;;;9.80;;
22660;SDS011;11497;52.222;21.246;2024-01-15T14:07:43;18.38;;;9.50;;
22660;SDS011;11497;52.222;21.246;2024-01-15T14:10:11;20.92;;;10.02;;
22660;SDS011;11497;52.222;21.246;2024-01-15T14:12:39;19.45;;;10.02;;
22660;SDS011;11497;52.222;21.246;2024-01-15T14:15:08;19.95;;;9.40;;
22660;SDS011;11497;52.222;21.246;2024-01-15T14:17:37;19.40;;;10.40;;
22660;SDS011;11497;52.222;21.246;2024-01-15T14:20:05;21.25;;;9.77;;
22660;SDS011;11497;52.222;21.246;2024-01-15T14:22:36;16.13;;;8.75;;
22660;SDS011;11497;52.222;21.246;2024-01-15T14:25:03;20.30;;;9.70;;
22660;SDS011;11497;52.222;21.246;2024-01-15T14:27:32;19.13;;;9.88;;
22660;SDS011;11497;52.222;21.246;2024-01-15T14:30:00;18.85;;;9.52;;
22660;SDS011;11497;52.222;21.246;2024-01-15T14:32:28;18.02;;;8.75;;
22660;SDS011;11497;52.222;21.246;2024-01-15T14:34:56;14.80;;;8.02;;
22660;SDS011;11497;52.222;21.246;2024-01-15T14:37:24;18.15;;;9.60;;